createdAt,value
2023-02-19T00:00:23.515Z,97204.97
2023-02-19T00:01:27.156Z,97205.38
2023-02-19T00:02:28.948Z,97200.50
2023-02-19T00:03:30.609Z,97197.31
2023-02-19T00:04:32.251Z,97206.97
2023-02-19T00:05:35.338Z,97203.81
2023-02-19T00:06:37.048Z,97200.06
2023-02-19T00:07:38.636Z,97195.16
2023-02-19T00:08:40.954Z,97193.50
2023-02-19T00:09:43.870Z,97191.22
2023-02-19T00:10:45.416Z,97195.56
2023-02-19T00:11:47.836Z,97189.16
2023-02-19T00:12:49.470Z,97190.59
2023-02-19T00:13:53.261Z,97188.91
2023-02-19T00:14:57.120Z,97189.84
2023-02-19T00:15:58.775Z,97191.03
2023-02-19T00:17:00.355Z,97187.50
2023-02-19T00:18:01.910Z,97191.69
2023-02-19T00:19:06.324Z,97193.47
2023-02-19T00:20:08.342Z,97196.03
2023-02-19T00:21:10.834Z,97196.25
2023-02-19T00:22:12.545Z,97185.78
2023-02-19T00:23:14.125Z,97196.63
2023-02-19T00:24:15.678Z,97186.97
2023-02-19T00:25:17.314Z,97186.41
2023-02-19T00:26:19.468Z,97181.25
2023-02-19T00:27:22.348Z,97175.44
2023-02-19T00:28:23.901Z,97177.81
2023-02-19T00:29:25.442Z,97184.03
2023-02-19T00:30:27.084Z,97193.97
2023-02-19T00:31:34.040Z,97188.91
2023-02-19T00:32:35.694Z,97189.00
2023-02-19T00:33:37.231Z,97192.16
2023-02-19T00:34:38.789Z,97189.50
2023-02-19T00:35:40.292Z,97186.84
2023-02-19T00:36:42.945Z,97184.63
2023-02-19T00:37:44.506Z,97179.78
2023-02-19T00:38:46.448Z,97184.53
2023-02-19T00:39:48.549Z,97181.28
2023-02-19T00:40:50.080Z,97180.59
2023-02-19T00:41:52.398Z,97182.63
2023-02-19T00:42:53.953Z,97182.03
2023-02-19T00:44:00.602Z,97171.59
2023-02-19T00:45:02.174Z,97174.16
2023-02-19T00:46:04.004Z,97172.78
2023-02-19T00:47:05.945Z,97176.50
2023-02-19T00:48:07.544Z,97186.59
2023-02-19T00:49:15.020Z,97178.50
2023-02-19T00:50:16.639Z,97182.44
2023-02-19T00:51:19.120Z,97184.63
2023-02-19T00:52:20.682Z,97174.75
2023-02-19T00:53:22.230Z,97173.34
2023-02-19T00:54:24.005Z,97173.88
2023-02-19T00:55:25.550Z,97179.38
2023-02-19T00:56:27.285Z,97178.53
2023-02-19T00:57:28.949Z,97179.88
2023-02-19T00:58:30.542Z,97174.13
2023-02-19T00:59:32.062Z,97173.19
2023-02-19T01:00:33.701Z,97170.31
2023-02-19T01:01:35.368Z,97166.38
2023-02-19T01:02:36.940Z,97173.34
2023-02-19T01:03:39.874Z,97170.91
2023-02-19T01:04:41.431Z,97171.69
2023-02-19T01:05:42.987Z,97175.41
2023-02-19T01:06:44.670Z,97172.25
2023-02-19T01:07:46.232Z,97169.66
2023-02-19T01:08:48.290Z,97173.44
2023-02-19T01:09:49.974Z,97159.84
2023-02-19T01:10:51.504Z,97163.78
2023-02-19T01:11:53.023Z,97166.84
2023-02-19T01:12:54.600Z,97163.84
2023-02-19T01:14:00.891Z,97158.97
2023-02-19T01:15:02.409Z,97167.06
2023-02-19T01:16:13.769Z,97164.03
2023-02-19T01:17:15.323Z,97163.16
2023-02-19T01:18:17.090Z,97165.75
2023-02-19T01:19:18.672Z,97158.28
2023-02-19T01:20:20.180Z,97156.09
2023-02-19T01:21:24.085Z,97154.41
2023-02-19T01:22:25.697Z,97155.22
2023-02-19T01:23:27.230Z,97155.44
2023-02-19T01:24:28.787Z,97154.34
2023-02-19T01:25:30.368Z,97146.84
2023-02-19T01:26:33.412Z,97156.91
2023-02-19T01:27:34.964Z,97156.34
2023-02-19T01:28:36.520Z,97156.34
2023-02-19T01:29:38.156Z,97149.59
2023-02-19T01:30:39.780Z,97142.31
2023-02-19T01:31:42.409Z,97151.28
2023-02-19T01:32:44.038Z,97151.75
2023-02-19T01:33:55.056Z,97148.53
2023-02-19T01:34:56.625Z,97152.97
2023-02-19T01:35:58.604Z,97152.09
2023-02-19T01:37:00.227Z,97152.59
2023-02-19T01:38:01.793Z,97156.53
2023-02-19T01:39:05.783Z,97144.81
2023-02-19T01:40:07.971Z,97149.34
2023-02-19T01:41:12.658Z,97151.13
2023-02-19T01:42:17.033Z,97153.00
2023-02-19T01:43:18.588Z,97154.56
2023-02-19T01:44:20.096Z,97147.09
2023-02-19T01:45:21.662Z,97143.88
2023-02-19T01:46:29.368Z,97142.00
2023-02-19T01:47:31.029Z,97135.06
2023-02-19T01:48:38.319Z,97147.91
2023-02-19T01:49:54.899Z,97146.53
2023-02-19T01:51:17.885Z,97144.91
2023-02-19T01:52:27.088Z,97149.06
2023-02-19T01:53:32.128Z,97152.00
2023-02-19T01:54:38.293Z,97147.94
2023-02-19T01:55:40.988Z,97153.44
2023-02-19T01:56:44.830Z,97145.53
2023-02-19T01:57:51.635Z,97150.31
2023-02-19T01:58:54.027Z,97149.59
2023-02-19T02:00:00.261Z,97151.25
2023-02-19T02:01:04.840Z,97140.16
2023-02-19T02:02:06.883Z,97149.03
2023-02-19T02:03:08.706Z,97152.44
2023-02-19T02:04:12.243Z,97145.75
2023-02-19T02:05:39.944Z,97145.03
2023-02-19T02:06:50.154Z,97150.28
2023-02-19T02:08:10.916Z,97150.16
2023-02-19T02:09:31.529Z,97145.25
2023-02-19T02:10:34.114Z,97145.66
2023-02-19T02:11:36.296Z,97147.50
2023-02-19T02:12:37.896Z,97146.09
2023-02-19T02:13:40.813Z,97157.88
2023-02-19T02:14:47.378Z,97154.91
2023-02-19T02:15:57.328Z,97157.31
2023-02-19T02:17:13.852Z,97147.41
2023-02-19T02:18:48.229Z,97147.19
2023-02-19T02:20:06.912Z,97157.00
2023-02-19T02:21:29.803Z,97160.97
2023-02-19T02:22:38.902Z,97161.78
2023-02-19T02:24:10.195Z,97172.16
2023-02-19T02:25:20.879Z,97168.41
2023-02-19T02:26:35.628Z,97174.09
2023-02-19T02:27:49.348Z,97169.13
2023-02-19T02:29:19.093Z,97171.84
2023-02-19T02:30:46.275Z,97178.19
2023-02-19T02:32:21.721Z,97171.50
2023-02-19T02:33:45.499Z,97168.59
2023-02-19T02:34:56.377Z,97174.56
2023-02-19T02:36:08.807Z,97178.34
2023-02-19T02:37:12.416Z,97185.06
2023-02-19T02:38:15.296Z,97180.72
2023-02-19T02:39:21.059Z,97181.97
2023-02-19T02:40:22.643Z,97185.06
2023-02-19T02:41:25.220Z,97188.22
2023-02-19T02:42:29.703Z,97189.81
2023-02-19T02:43:31.986Z,97197.25
2023-02-19T02:44:37.457Z,97192.00
2023-02-19T02:45:40.082Z,97193.88
2023-02-19T02:46:44.881Z,97193.66
2023-02-19T02:47:56.563Z,97199.97
2023-02-19T02:49:03.370Z,97193.75
2023-02-19T02:50:05.448Z,97194.91
2023-02-19T02:51:41.551Z,97187.84
2023-02-19T02:53:06.677Z,97186.38
2023-02-19T02:54:37.217Z,97198.34
2023-02-19T02:55:43.188Z,97196.66
2023-02-19T02:56:46.917Z,97205.03
2023-02-19T02:57:48.503Z,97199.38
2023-02-19T02:58:51.846Z,97195.88
2023-02-19T02:59:53.660Z,97187.63
2023-02-19T03:01:20.002Z,97192.59
2023-02-19T03:02:26.178Z,97205.28
2023-02-19T03:03:30.804Z,97202.63
2023-02-19T03:05:18.677Z,97197.72
2023-02-19T03:06:23.589Z,97193.97
2023-02-19T03:07:29.134Z,97194.06
2023-02-19T03:08:38.283Z,97202.00
2023-02-19T03:09:43.234Z,97205.16
2023-02-19T03:10:47.377Z,97202.75
2023-02-19T03:12:09.954Z,97209.97
2023-02-19T03:13:38.907Z,97202.31
2023-02-19T03:15:13.150Z,97202.03
2023-02-19T03:16:42.923Z,97195.69
2023-02-19T03:18:09.587Z,97200.19
2023-02-19T03:19:19.200Z,97207.56
2023-02-19T03:20:24.582Z,97213.56
2023-02-19T03:21:28.639Z,97212.44
2023-02-19T03:22:34.026Z,97216.66
2023-02-19T03:23:55.731Z,97215.28
2023-02-19T03:25:19.960Z,97216.09
2023-02-19T03:26:22.158Z,97211.53
2023-02-19T03:27:28.234Z,97221.59
2023-02-19T03:28:51.755Z,97217.59
2023-02-19T03:29:56.539Z,97218.31
2023-02-19T03:30:58.171Z,97224.09
2023-02-19T03:32:08.887Z,97228.09
2023-02-19T03:33:17.349Z,97222.06
2023-02-19T03:34:48.642Z,97215.44
2023-02-19T03:35:56.350Z,97225.56
2023-02-19T03:37:13.357Z,97219.16
2023-02-19T03:38:29.930Z,97232.22
2023-02-19T03:39:32.387Z,97236.19
2023-02-19T03:40:44.409Z,97235.13
2023-02-19T03:42:24.209Z,97237.50
2023-02-19T03:44:03.139Z,97237.25
2023-02-19T03:45:15.055Z,97239.38
2023-02-19T03:46:44.848Z,97245.81
2023-02-19T03:48:00.484Z,97249.59
2023-02-19T03:49:08.528Z,97252.03
2023-02-19T03:50:19.981Z,97247.97
2023-02-19T03:51:39.610Z,97253.28
2023-02-19T03:52:58.357Z,97256.97
2023-02-19T03:54:13.240Z,97256.47
2023-02-19T03:55:34.264Z,97251.84
2023-02-19T03:56:45.324Z,97251.38
2023-02-19T03:58:07.742Z,97255.88
2023-02-19T03:59:35.438Z,97254.00
2023-02-19T04:01:09.597Z,97252.34
2023-02-19T04:02:24.301Z,97244.63
2023-02-19T04:03:44.360Z,97247.72
2023-02-19T04:04:51.836Z,97251.50
2023-02-19T04:06:02.790Z,97248.09
2023-02-19T04:07:04.788Z,97253.66
2023-02-19T04:08:13.608Z,97255.19
2023-02-19T04:09:16.729Z,97260.47
2023-02-19T04:10:19.854Z,97262.53
2023-02-19T04:11:23.156Z,97267.78
2023-02-19T04:12:25.341Z,97258.78
2023-02-19T04:13:32.987Z,97257.28
2023-02-19T04:14:43.954Z,97252.84
2023-02-19T04:15:48.657Z,97260.56
2023-02-19T04:16:55.792Z,97262.63
2023-02-19T04:18:06.002Z,97255.19
2023-02-19T04:19:11.678Z,97258.34
2023-02-19T04:20:14.396Z,97252.75
2023-02-19T04:21:16.737Z,97263.06
2023-02-19T04:22:19.440Z,97256.13
2023-02-19T04:23:26.573Z,97269.84
2023-02-19T04:24:34.480Z,97264.00
2023-02-19T04:25:39.812Z,97264.81
2023-02-19T04:26:42.855Z,97260.44
2023-02-19T04:27:45.868Z,97260.75
2023-02-19T04:28:47.464Z,97263.97
2023-02-19T04:29:49.132Z,97265.53
2023-02-19T04:30:50.756Z,97255.19
2023-02-19T04:31:52.425Z,97264.69
2023-02-19T04:32:54.045Z,97270.22
2023-02-19T04:33:55.610Z,97259.88
2023-02-19T04:34:57.175Z,97258.78
2023-02-19T04:35:58.732Z,97263.53
2023-02-19T04:37:00.306Z,97260.88
2023-02-19T04:38:01.900Z,97264.00
2023-02-19T04:39:03.814Z,97256.56
2023-02-19T04:40:05.995Z,97257.09
2023-02-19T04:41:09.788Z,97261.84
2023-02-19T04:42:11.547Z,97256.53
2023-02-19T04:43:13.162Z,97259.16
2023-02-19T04:44:14.714Z,97262.56
2023-02-19T04:45:16.315Z,97254.84
2023-02-19T04:46:17.945Z,97265.41
2023-02-19T04:47:19.502Z,97271.22
2023-02-19T04:48:21.064Z,97266.44
2023-02-19T04:49:22.650Z,97269.63
2023-02-19T04:50:24.521Z,97269.06
2023-02-19T04:51:26.065Z,97263.75
2023-02-19T04:52:27.640Z,97267.50
2023-02-19T04:53:29.187Z,97268.00
2023-02-19T04:54:30.752Z,97265.88
2023-02-19T04:55:32.683Z,97270.34
2023-02-19T04:56:34.449Z,97264.47
2023-02-19T04:57:36.209Z,97265.53
2023-02-19T04:58:38.408Z,97272.88
2023-02-19T04:59:39.987Z,97267.03
2023-02-19T05:00:41.554Z,97265.69
2023-02-19T05:01:43.274Z,97271.50
2023-02-19T05:02:44.917Z,97269.88
2023-02-19T05:03:46.770Z,97277.53
2023-02-19T05:04:48.833Z,97266.41
2023-02-19T05:05:50.398Z,97268.50
2023-02-19T05:06:51.973Z,97269.25
2023-02-19T05:07:54.004Z,97272.13
2023-02-19T05:08:55.546Z,97263.91
2023-02-19T05:09:57.141Z,97274.03
2023-02-19T05:11:03.094Z,97273.59
2023-02-19T05:12:04.720Z,97266.25
2023-02-19T05:13:06.240Z,97264.78
2023-02-19T05:14:07.770Z,97267.97
2023-02-19T05:15:09.395Z,97271.75
2023-02-19T05:16:16.276Z,97278.16
2023-02-19T05:17:18.070Z,97267.63
2023-02-19T05:18:19.629Z,97271.84
2023-02-19T05:19:21.258Z,97277.94
2023-02-19T05:20:23.071Z,97280.34
2023-02-19T05:21:24.789Z,97269.75
2023-02-19T05:22:26.350Z,97274.53
2023-02-19T05:23:28.688Z,97272.97
2023-02-19T05:24:31.585Z,97272.94
2023-02-19T05:25:33.134Z,97275.03
2023-02-19T05:26:34.818Z,97276.88
2023-02-19T05:27:36.325Z,97281.88
2023-02-19T05:28:38.074Z,97282.91
2023-02-19T05:29:39.660Z,97280.78
2023-02-19T05:30:41.225Z,97284.22
2023-02-19T05:31:42.913Z,97280.28
2023-02-19T05:32:44.550Z,97280.28
2023-02-19T05:33:50.211Z,97293.50
2023-02-19T05:34:51.820Z,97290.59
2023-02-19T05:35:55.360Z,97289.78
2023-02-19T05:36:56.920Z,97286.56
2023-02-19T05:37:58.551Z,97291.34
2023-02-19T05:39:00.367Z,97291.81
2023-02-19T05:40:01.952Z,97295.78
2023-02-19T05:41:11.688Z,97298.69
2023-02-19T05:42:14.970Z,97304.22
2023-02-19T05:43:17.186Z,97306.03
2023-02-19T05:44:18.729Z,97301.78
2023-02-19T05:45:20.253Z,97310.25
2023-02-19T05:46:24.762Z,97311.25
2023-02-19T05:47:26.303Z,97309.94
2023-02-19T05:48:27.815Z,97312.06
2023-02-19T05:49:29.386Z,97308.94
2023-02-19T05:50:38.692Z,97310.31
2023-02-19T05:51:41.235Z,97314.50
2023-02-19T05:52:44.236Z,97318.72
2023-02-19T05:53:46.797Z,97322.94
2023-02-19T05:54:48.359Z,97318.38
2023-02-19T05:55:49.884Z,97322.84
2023-02-19T05:56:51.580Z,97320.97
2023-02-19T05:57:53.168Z,97328.09
2023-02-19T05:58:55.546Z,97325.41
2023-02-19T05:59:57.178Z,97332.53
2023-02-19T06:00:58.711Z,97327.97
2023-02-19T06:02:00.317Z,97339.59
2023-02-19T06:03:02.258Z,97339.03
2023-02-19T06:04:04.195Z,97342.47
2023-02-19T06:05:06.504Z,97347.47
2023-02-19T06:06:08.413Z,97338.94
2023-02-19T06:07:09.967Z,97343.72
2023-02-19T06:08:16.100Z,97347.38
2023-02-19T06:09:17.885Z,97341.50
2023-02-19T06:10:19.807Z,97344.69
2023-02-19T06:11:21.769Z,97340.16
2023-02-19T06:12:23.739Z,97349.47
2023-02-19T06:13:25.288Z,97355.88
2023-02-19T06:14:26.871Z,97350.56
2023-02-19T06:15:29.994Z,97354.81
2023-02-19T06:16:33.628Z,97357.06
2023-02-19T06:17:35.740Z,97360.38
2023-02-19T06:18:37.665Z,97362.91
2023-02-19T06:19:39.269Z,97361.09
2023-02-19T06:20:40.851Z,97362.19
2023-02-19T06:21:42.363Z,97355.69
2023-02-19T06:22:43.934Z,97362.34
2023-02-19T06:23:45.951Z,97359.47
2023-02-19T06:24:48.518Z,97363.97
2023-02-19T06:25:50.094Z,97367.13
2023-02-19T06:26:51.675Z,97369.78
2023-02-19T06:27:53.211Z,97370.41
2023-02-19T06:28:54.829Z,97368.88
2023-02-19T06:29:56.425Z,97373.06
2023-02-19T06:31:01.193Z,97368.78
2023-02-19T06:32:02.849Z,97368.25
2023-02-19T06:33:04.513Z,97372.72
2023-02-19T06:34:06.101Z,97376.66
2023-02-19T06:35:07.828Z,97372.44
2023-02-19T06:36:18.069Z,97374.78
2023-02-19T06:37:19.606Z,97378.19
2023-02-19T06:38:22.236Z,97370.97
2023-02-19T06:39:23.800Z,97373.28
2023-02-19T06:40:25.361Z,97369.56
2023-02-19T06:41:27.013Z,97372.72
2023-02-19T06:42:32.127Z,97370.84
2023-02-19T06:43:34.697Z,97378.75
2023-02-19T06:44:36.361Z,97382.16
2023-02-19T06:45:37.909Z,97376.78
2023-02-19T06:46:39.652Z,97378.31
2023-02-19T06:47:41.284Z,97376.34
2023-02-19T06:48:44.732Z,97380.53
2023-02-19T06:49:46.278Z,97378.63
2023-02-19T06:50:47.799Z,97373.25
2023-02-19T06:51:49.378Z,97372.16
2023-02-19T06:52:50.936Z,97374.31
2023-02-19T06:53:53.191Z,97378.88
2023-02-19T06:54:54.743Z,97377.03
2023-02-19T06:56:05.360Z,97378.56
2023-02-19T06:57:06.894Z,97377.72
2023-02-19T06:58:08.518Z,97371.53
2023-02-19T06:59:13.056Z,97379.94
2023-02-19T07:00:15.029Z,97384.19
2023-02-19T07:01:17.190Z,97374.56
2023-02-19T07:02:18.789Z,97374.56
2023-02-19T07:03:20.662Z,97380.41
2023-02-19T07:04:22.264Z,97378.81
2023-02-19T07:05:23.907Z,97378.88
2023-02-19T07:06:26.979Z,97371.88
2023-02-19T07:07:28.509Z,97376.06
2023-02-19T07:08:30.707Z,97373.59
2023-02-19T07:09:32.464Z,97370.75
2023-02-19T07:10:34.051Z,97369.66
2023-02-19T07:11:38.959Z,97367.91
2023-02-19T07:12:40.495Z,97360.34
2023-02-19T07:13:42.036Z,97362.81
2023-02-19T07:14:43.585Z,97362.56
2023-02-19T07:15:45.117Z,97364.00
2023-02-19T07:16:47.523Z,97363.59
2023-02-19T07:17:49.158Z,97364.94
2023-02-19T07:18:50.804Z,97367.34
2023-02-19T07:19:52.406Z,97370.59
2023-02-19T07:20:54.087Z,97369.47
2023-02-19T07:21:55.827Z,97364.13
2023-02-19T07:22:57.954Z,97364.75
2023-02-19T07:23:59.517Z,97362.59
2023-02-19T07:25:01.035Z,97365.97
2023-02-19T07:26:03.032Z,97369.97
2023-02-19T07:27:04.566Z,97363.56
2023-02-19T07:28:06.714Z,97364.38
2023-02-19T07:29:10.011Z,97358.69
2023-02-19T07:30:11.865Z,97355.94
2023-02-19T07:31:15.436Z,97361.31
2023-02-19T07:32:17.190Z,97359.72
2023-02-19T07:33:19.004Z,97365.63
2023-02-19T07:34:20.929Z,97365.03
2023-02-19T07:35:22.487Z,97359.56
2023-02-19T07:36:24.767Z,97352.31
2023-02-19T07:37:26.276Z,97351.50
2023-02-19T07:38:28.002Z,97356.00
2023-02-19T07:39:29.556Z,97351.94
2023-02-19T07:40:31.111Z,97348.84
2023-02-19T07:41:34.469Z,97350.94
2023-02-19T07:42:36.092Z,97349.84
2023-02-19T07:43:38.678Z,97352.81
2023-02-19T07:44:40.283Z,97354.38
2023-02-19T07:45:41.829Z,97354.28
2023-02-19T07:46:43.791Z,97353.72
2023-02-19T07:47:45.330Z,97348.97
2023-02-19T07:48:46.862Z,97350.19
2023-02-19T07:49:48.373Z,97354.31
2023-02-19T07:50:58.275Z,97350.97
2023-02-19T07:51:59.826Z,97352.28
2023-02-19T07:53:01.374Z,97350.34
2023-02-19T07:54:03.005Z,97343.69
2023-02-19T07:55:04.757Z,97352.38
2023-02-19T07:56:07.937Z,97347.38
2023-02-19T07:57:09.460Z,97352.31
2023-02-19T07:58:11.080Z,97343.91
2023-02-19T07:59:12.666Z,97345.41
2023-02-19T08:00:14.477Z,97350.47
2023-02-19T08:01:19.058Z,97343.59
2023-02-19T08:02:39.754Z,97339.56
2023-02-19T08:03:42.302Z,97337.47
2023-02-19T08:04:45.657Z,97335.91
2023-02-19T08:05:49.795Z,97334.84
2023-02-19T08:06:53.164Z,97336.63
2023-02-19T08:07:54.917Z,97325.63
2023-02-19T08:08:57.881Z,97324.03
2023-02-19T08:10:18.415Z,97316.31
2023-02-19T08:11:38.504Z,97312.84
2023-02-19T08:13:08.989Z,97307.34
2023-02-19T08:14:10.943Z,97309.44
2023-02-19T08:15:12.490Z,97304.41
2023-02-19T08:16:24.389Z,97303.72
2023-02-19T08:17:34.900Z,97301.53
2023-02-19T08:18:36.841Z,97305.81
2023-02-19T08:19:38.415Z,97306.78
2023-02-19T08:20:40.578Z,97307.06
2023-02-19T08:21:42.156Z,97306.75
2023-02-19T08:22:43.725Z,97309.28
2023-02-19T08:23:46.456Z,97299.81
2023-02-19T08:24:47.971Z,97303.88
2023-02-19T08:25:51.100Z,97302.03
2023-02-19T08:26:53.301Z,97295.03
2023-02-19T08:27:54.888Z,97297.19
2023-02-19T08:28:56.477Z,97294.13
2023-02-19T08:29:58.006Z,97293.91
2023-02-19T08:31:02.086Z,97289.53
2023-02-19T08:32:03.780Z,97283.81
2023-02-19T08:33:07.098Z,97282.91
2023-02-19T08:34:08.645Z,97282.00
2023-02-19T08:35:10.667Z,97283.19
2023-02-19T08:36:12.325Z,97288.19
2023-02-19T08:37:13.899Z,97288.03
2023-02-19T08:38:16.519Z,97287.09
2023-02-19T08:39:20.139Z,97291.69
2023-02-19T08:40:22.983Z,97287.97
2023-02-19T08:41:24.536Z,97293.44
2023-02-19T08:42:26.087Z,97284.66
2023-02-19T08:43:27.642Z,97286.94
2023-02-19T08:44:29.759Z,97287.53
2023-02-19T08:45:31.629Z,97283.06
2023-02-19T08:46:34.505Z,97286.00
2023-02-19T08:47:36.676Z,97277.78
2023-02-19T08:48:39.312Z,97279.50
2023-02-19T08:49:40.866Z,97276.63
2023-02-19T08:50:42.545Z,97276.72
2023-02-19T08:51:44.149Z,97273.84
2023-02-19T08:52:45.739Z,97275.78
2023-02-19T08:53:47.346Z,97272.88
2023-02-19T08:54:48.919Z,97262.47
2023-02-19T08:55:50.872Z,97266.84
2023-02-19T08:56:52.419Z,97263.94
2023-02-19T08:57:54.089Z,97261.25
2023-02-19T08:58:55.619Z,97252.84
2023-02-19T08:59:57.383Z,97255.19
2023-02-19T09:00:59.111Z,97252.25
2023-02-19T09:02:00.959Z,97257.69
2023-02-19T09:03:02.547Z,97251.28
2023-02-19T09:04:04.296Z,97253.47
2023-02-19T09:05:06.079Z,97249.78
2023-02-19T09:06:08.349Z,97245.69
2023-02-19T09:07:12.349Z,97239.63
2023-02-19T09:08:13.992Z,97252.22
2023-02-19T09:09:15.601Z,97246.94
2023-02-19T09:10:17.175Z,97242.78
2023-02-19T09:11:18.791Z,97241.44
2023-02-19T09:12:20.991Z,97240.41
2023-02-19T09:13:22.554Z,97234.50
2023-02-19T09:14:24.078Z,97239.25
2023-02-19T09:15:25.832Z,97228.72
2023-02-19T09:16:27.426Z,97230.16
2023-02-19T09:17:29.006Z,97227.34
2023-02-19T09:18:30.610Z,97227.06
2023-02-19T09:19:32.316Z,97220.38
2023-02-19T09:20:33.930Z,97223.28
2023-02-19T09:21:35.462Z,97218.31
2023-02-19T09:22:37.151Z,97212.19
2023-02-19T09:23:38.731Z,97215.91
2023-02-19T09:26:00.141Z,97207.03
2023-02-19T09:27:02.373Z,97206.19
2023-02-19T09:28:04.370Z,97206.66
2023-02-19T09:29:08.156Z,97205.66
2023-02-19T09:30:10.383Z,97206.34
2023-02-19T09:31:15.949Z,97194.28
2023-02-19T09:32:19.346Z,97195.97
2023-02-19T09:33:21.004Z,97188.69
2023-02-19T09:34:22.644Z,97190.81
2023-02-19T09:35:24.331Z,97193.94
2023-02-19T09:36:25.898Z,97180.00
2023-02-19T09:37:28.025Z,97185.16
2023-02-19T09:38:31.025Z,97185.06
2023-02-19T09:39:33.944Z,97178.91
2023-02-19T09:40:36.274Z,97181.03
2023-02-19T09:41:47.103Z,97175.69
2023-02-19T09:42:51.221Z,97171.09
2023-02-19T09:43:52.965Z,97176.59
2023-02-19T09:44:57.594Z,97175.94
2023-02-19T09:46:09.768Z,97169.53
2023-02-19T09:47:23.613Z,97174.13
2023-02-19T09:48:25.308Z,97166.06
2023-02-19T09:49:36.172Z,97164.63
2023-02-19T09:50:41.532Z,97153.81
2023-02-19T09:51:49.167Z,97157.28
2023-02-19T09:52:58.239Z,97152.34
2023-02-19T09:54:00.954Z,97154.69
2023-02-19T09:55:13.158Z,97141.22
2023-02-19T09:56:14.944Z,97142.66
2023-02-19T09:57:21.347Z,97140.31
2023-02-19T09:58:28.084Z,97139.50
2023-02-19T09:59:40.641Z,97135.97
2023-02-19T10:00:42.804Z,97137.44
2023-02-19T10:01:45.315Z,97128.25
2023-02-19T10:02:47.091Z,97132.38
2023-02-19T10:03:50.296Z,97125.50
2023-02-19T10:04:53.018Z,97114.16
2023-02-19T10:05:56.511Z,97119.00
2023-02-19T10:07:03.429Z,97115.59
2023-02-19T10:08:08.875Z,97116.22
2023-02-19T10:09:26.958Z,97119.38
2023-02-19T10:10:34.343Z,97113.81
2023-02-19T10:11:36.046Z,97106.81
2023-02-19T10:12:37.845Z,97113.94
2023-02-19T10:13:47.424Z,97113.81
2023-02-19T10:14:51.612Z,97105.63
2023-02-19T10:15:56.983Z,97098.66
2023-02-19T10:17:03.549Z,97101.88
2023-02-19T10:18:08.822Z,97100.69
2023-02-19T10:19:16.337Z,97092.50
2023-02-19T10:20:24.664Z,97095.19
2023-02-19T10:21:28.066Z,97086.50
2023-02-19T10:22:31.604Z,97080.84
2023-02-19T10:23:34.098Z,97081.63
2023-02-19T10:24:38.498Z,97077.09
2023-02-19T10:25:46.444Z,97080.31
2023-02-19T10:26:49.633Z,97075.19
2023-02-19T10:27:51.222Z,97069.53
2023-02-19T10:28:54.710Z,97063.50
2023-02-19T10:29:56.678Z,97059.69
2023-02-19T10:31:00.366Z,97061.00
2023-02-19T10:32:21.245Z,97060.38
2023-02-19T10:33:23.659Z,97063.97
2023-02-19T10:34:25.737Z,97060.03
2023-02-19T10:35:27.949Z,97056.13
2023-02-19T10:36:34.008Z,97045.06
2023-02-19T10:37:41.755Z,97048.91
2023-02-19T10:38:47.958Z,97044.47
2023-02-19T10:39:50.816Z,97048.91
2023-02-19T10:41:13.799Z,97042.00
2023-02-19T10:42:23.385Z,97044.00
2023-02-19T10:43:34.088Z,97036.75
2023-02-19T10:44:42.585Z,97042.66
2023-02-19T10:45:50.536Z,97032.28
2023-02-19T10:46:57.485Z,97024.69
2023-02-19T10:48:00.104Z,97023.72
2023-02-19T10:49:17.794Z,97019.88
2023-02-19T10:50:25.578Z,97012.75
2023-02-19T10:51:36.604Z,97011.63
2023-02-19T10:52:38.511Z,97007.00
2023-02-19T10:53:44.167Z,97005.16
2023-02-19T10:54:49.367Z,97006.44
2023-02-19T10:56:10.843Z,97001.53
2023-02-19T10:57:15.552Z,96997.41
2023-02-19T10:58:30.353Z,96995.09
2023-02-19T10:59:31.941Z,96989.66
2023-02-19T11:00:33.523Z,96988.81
2023-02-19T11:01:35.102Z,96984.97
2023-02-19T11:02:36.650Z,96978.06
2023-02-19T11:03:38.890Z,96979.00
2023-02-19T11:04:40.529Z,96976.78
2023-02-19T11:06:11.084Z,96974.47
2023-02-19T11:07:18.671Z,96968.28
2023-02-19T11:08:23.225Z,96956.66
2023-02-19T11:09:27.294Z,96957.44
2023-02-19T11:10:44.957Z,96955.16
2023-02-19T11:11:52.068Z,96953.28
2023-02-19T11:13:05.954Z,96952.25
2023-02-19T11:14:24.905Z,96939.88
2023-02-19T11:15:29.267Z,96937.56
2023-02-19T11:16:39.985Z,96939.19
2023-02-19T11:17:42.039Z,96933.88
2023-02-19T11:18:45.086Z,96934.03
2023-02-19T11:19:48.721Z,96925.63
2023-02-19T11:21:05.416Z,96928.69
2023-02-19T11:22:30.442Z,96921.03
2023-02-19T11:23:37.612Z,96923.44
2023-02-19T11:24:40.591Z,96925.84
2023-02-19T11:25:47.640Z,96913.56
2023-02-19T11:26:49.230Z,96912.84
2023-02-19T11:27:55.123Z,96917.53
2023-02-19T11:29:01.581Z,96912.63
2023-02-19T11:30:33.920Z,96910.00
2023-02-19T11:31:37.551Z,96913.84
2023-02-19T11:32:39.182Z,96910.75
2023-02-19T11:33:48.345Z,96906.91
2023-02-19T11:34:50.033Z,96903.03
2023-02-19T11:35:58.861Z,96900.66
2023-02-19T11:37:21.077Z,96898.72
2023-02-19T11:38:22.673Z,96885.19
2023-02-19T11:39:32.117Z,96885.22
2023-02-19T11:40:45.033Z,96886.06
2023-02-19T11:42:21.152Z,96881.53
2023-02-19T11:43:31.762Z,96871.53
2023-02-19T11:44:39.768Z,96873.09
2023-02-19T11:45:47.009Z,96863.06
2023-02-19T11:47:19.344Z,96869.31
2023-02-19T11:48:51.057Z,96862.44
2023-02-19T11:50:21.587Z,96863.16
2023-02-19T11:51:52.192Z,96860.84
2023-02-19T11:53:16.508Z,96850.47
2023-02-19T11:54:54.649Z,96861.13
2023-02-19T11:56:08.591Z,96849.66
2023-02-19T11:57:24.390Z,96841.53
2023-02-19T11:58:37.780Z,96849.34
2023-02-19T12:00:01.330Z,96838.84
2023-02-19T12:01:39.942Z,96838.00
2023-02-19T12:02:41.632Z,96838.78
2023-02-19T12:04:26.799Z,96838.00
2023-02-19T12:05:50.053Z,96836.47
2023-02-19T12:07:29.765Z,96839.56
2023-02-19T12:09:12.489Z,96833.44
2023-02-19T12:10:29.056Z,96840.47
2023-02-19T12:11:55.603Z,96825.06
2023-02-19T12:13:24.917Z,96823.88
2023-02-19T12:14:26.460Z,96826.63
2023-02-19T12:16:05.234Z,96815.91
2023-02-19T12:17:09.760Z,96822.25
2023-02-19T12:18:36.228Z,96811.84
2023-02-19T12:19:39.284Z,96811.13
2023-02-19T12:21:20.933Z,96810.78
2023-02-19T12:22:25.257Z,96812.38
2023-02-19T12:23:26.719Z,96808.53
2023-02-19T12:25:00.311Z,96798.09
2023-02-19T12:26:32.683Z,96793.84
2023-02-19T12:27:50.798Z,96793.47
2023-02-19T12:29:11.274Z,96796.19
2023-02-19T12:30:21.780Z,96792.34
2023-02-19T12:31:53.517Z,96783.84
2023-02-19T12:33:05.592Z,96793.13
2023-02-19T12:34:25.231Z,96781.91
2023-02-19T12:35:51.161Z,96780.44
2023-02-19T12:36:58.690Z,96774.31
2023-02-19T12:38:26.000Z,96767.69
2023-02-19T12:40:02.228Z,96768.78
2023-02-19T12:41:26.597Z,96766.91
2023-02-19T12:42:55.837Z,96758.81
2023-02-19T12:44:08.333Z,96759.56
2023-02-19T12:45:34.214Z,96747.50
2023-02-19T12:46:39.750Z,96755.66
2023-02-19T12:47:43.422Z,96748.72
2023-02-19T12:49:02.580Z,96742.97
2023-02-19T12:50:22.514Z,96746.88
2023-02-19T12:51:27.826Z,96740.66
2023-02-19T12:52:36.830Z,96738.75
2023-02-19T12:53:41.162Z,96736.84
2023-02-19T12:54:46.531Z,96737.63
2023-02-19T12:55:48.795Z,96733.34
2023-02-19T12:56:59.906Z,96742.28
2023-02-19T12:58:06.433Z,96732.25
2023-02-19T12:59:33.451Z,96733.00
2023-02-19T13:00:42.613Z,96736.06
2023-02-19T13:01:56.415Z,96727.56
2023-02-19T13:03:12.951Z,96730.66